sensor_id;sensor_type;location;lat;lon;timestamp;P1;durP1;ratioP1;P2;durP2;ratioP2
25249;SDS011;13201;51.148;13.738;2022-11-25T00:01:07;7.00;;;2.50;;
25249;SDS011;13201;51.148;13.738;2022-11-25T00:03:33;7.35;;;2.55;;
25249;SDS011;13201;51.148;13.738;2022-11-25T00:06:09;5.43;;;3.42;;
25249;SDS011;13201;51.148;13.738;2022-11-25T00:08:36;4.28;;;2.70;;
25249;SDS011;13201;51.148;13.738;2022-11-25T00:11:03;4.90;;;2.40;;
25249;SDS011;13201;51.148;13.738;2022-11-25T00:15:59;5.03;;;2.80;;
25249;SDS011;13201;51.148;13.738;2022-11-25T00:18:28;5.93;;;2.80;;
25249;SDS011;13201;51.148;13.738;2022-11-25T00:20:55;6.78;;;3.00;;
25249;SDS011;13201;51.148;13.738;2022-11-25T00:23:21;6.53;;;3.17;;
25249;SDS011;13201;51.148;13.738;2022-11-25T00:25:46;6.40;;;3.35;;
25249;SDS011;13201;51.148;13.738;2022-11-25T00:28:12;5.45;;;2.90;;
25249;SDS011;13201;51.148;13.738;2022-11-25T00:30:38;6.88;;;3.25;;
25249;SDS011;13201;51.148;13.738;2022-11-25T00:33:03;8.85;;;3.28;;
25249;SDS011;13201;51.148;13.738;2022-11-25T00:35:29;6.47;;;3.33;;
25249;SDS011;13201;51.148;13.738;2022-11-25T00:37:54;8.05;;;2.80;;
25249;SDS011;13201;51.148;13.738;2022-11-25T00:40:20;5.53;;;3.13;;
25249;SDS011;13201;51.148;13.738;2022-11-25T00:42:46;6.05;;;3.42;;
25249;SDS011;13201;51.148;13.738;2022-11-25T00:45:30;6.32;;;2.67;;
25249;SDS011;13201;51.148;13.738;2022-11-25T00:47:55;5.63;;;2.83;;
25249;SDS011;13201;51.148;13.738;2022-11-25T00:50:21;6.00;;;2.90;;
25249;SDS011;13201;51.148;13.738;2022-11-25T00:52:46;5.05;;;2.58;;
25249;SDS011;13201;51.148;13.738;2022-11-25T00:55:12;5.53;;;2.95;;
25249;SDS011;13201;51.148;13.738;2022-11-25T00:57:38;8.45;;;3.50;;
25249;SDS011;13201;51.148;13.738;2022-11-25T01:00:04;5.80;;;2.60;;
25249;SDS011;13201;51.148;13.738;2022-11-25T01:02:32;7.78;;;3.10;;
25249;SDS011;13201;51.148;13.738;2022-11-25T01:04:58;9.40;;;3.25;;
25249;SDS011;13201;51.148;13.738;2022-11-25T01:31:18;5.20;;;2.55;;
25249;SDS011;13201;51.148;13.738;2022-11-25T01:33:46;4.13;;;2.72;;
25249;SDS011;13201;51.148;13.738;2022-11-25T01:36:16;4.78;;;2.63;;
25249;SDS011;13201;51.148;13.738;2022-11-25T01:38:42;3.97;;;2.28;;
25249;SDS011;13201;51.148;13.738;2022-11-25T01:41:10;3.17;;;2.20;;
25249;SDS011;13201;51.148;13.738;2022-11-25T01:43:38;4.47;;;2.40;;
25249;SDS011;13201;51.148;13.738;2022-11-25T01:51:26;5.90;;;2.80;;
25249;SDS011;13201;51.148;13.738;2022-11-25T01:54:03;4.57;;;2.50;;
25249;SDS011;13201;51.148;13.738;2022-11-25T01:56:32;4.40;;;2.30;;
25249;SDS011;13201;51.148;13.738;2022-11-25T01:59:03;4.40;;;2.53;;
25249;SDS011;13201;51.148;13.738;2022-11-25T02:01:29;6.50;;;2.80;;
25249;SDS011;13201;51.148;13.738;2022-11-25T02:03:55;7.15;;;2.50;;
25249;SDS011;13201;51.148;13.738;2022-11-25T02:06:26;7.30;;;2.90;;
25249;SDS011;13201;51.148;13.738;2022-11-25T02:08:57;6.25;;;2.70;;
25249;SDS011;13201;51.148;13.738;2022-11-25T02:11:29;3.90;;;2.50;;
25249;SDS011;13201;51.148;13.738;2022-11-25T02:13:56;4.72;;;2.55;;
25249;SDS011;13201;51.148;13.738;2022-11-25T02:16:23;5.97;;;2.67;;
25249;SDS011;13201;51.148;13.738;2022-11-25T02:18:49;5.65;;;2.65;;
25249;SDS011;13201;51.148;13.738;2022-11-25T02:21:19;5.75;;;2.63;;
25249;SDS011;13201;51.148;13.738;2022-11-25T02:23:53;6.85;;;2.50;;
25249;SDS011;13201;51.148;13.738;2022-11-25T02:26:51;4.53;;;2.85;;
25249;SDS011;13201;51.148;13.738;2022-11-25T02:29:16;7.28;;;3.05;;
25249;SDS011;13201;51.148;13.738;2022-11-25T02:31:42;5.95;;;3.00;;
25249;SDS011;13201;51.148;13.738;2022-11-25T02:34:08;6.20;;;2.83;;
25249;SDS011;13201;51.148;13.738;2022-11-25T02:36:34;5.17;;;2.60;;
25249;SDS011;13201;51.148;13.738;2022-11-25T02:39:00;5.00;;;2.63;;
25249;SDS011;13201;51.148;13.738;2022-11-25T02:41:30;4.43;;;2.35;;
25249;SDS011;13201;51.148;13.738;2022-11-25T02:44:09;5.72;;;2.53;;
25249;SDS011;13201;51.148;13.738;2022-11-25T02:46:34;5.40;;;2.75;;
25249;SDS011;13201;51.148;13.738;2022-11-25T02:49:00;3.92;;;2.50;;
25249;SDS011;13201;51.148;13.738;2022-11-25T02:51:28;6.05;;;2.65;;
25249;SDS011;13201;51.148;13.738;2022-11-25T02:53:55;4.65;;;2.25;;
25249;SDS011;13201;51.148;13.738;2022-11-25T02:56:24;4.03;;;2.33;;
25249;SDS011;13201;51.148;13.738;2022-11-25T02:58:52;5.47;;;2.63;;
25249;SDS011;13201;51.148;13.738;2022-11-25T03:01:18;7.13;;;2.42;;
25249;SDS011;13201;51.148;13.738;2022-11-25T03:03:44;4.55;;;2.38;;
25249;SDS011;13201;51.148;13.738;2022-11-25T03:06:10;5.43;;;2.00;;
25249;SDS011;13201;51.148;13.738;2022-11-25T03:08:36;3.47;;;2.25;;
25249;SDS011;13201;51.148;13.738;2022-11-25T03:11:02;4.17;;;2.40;;
25249;SDS011;13201;51.148;13.738;2022-11-25T03:13:29;4.00;;;2.40;;
25249;SDS011;13201;51.148;13.738;2022-11-25T03:15:54;3.40;;;2.08;;
25249;SDS011;13201;51.148;13.738;2022-11-25T03:18:20;7.75;;;2.45;;
25249;SDS011;13201;51.148;13.738;2022-11-25T03:20:46;2.83;;;1.93;;
25249;SDS011;13201;51.148;13.738;2022-11-25T03:23:16;5.93;;;2.13;;
25249;SDS011;13201;51.148;13.738;2022-11-25T03:25:42;4.40;;;2.05;;
25249;SDS011;13201;51.148;13.738;2022-11-25T03:28:08;5.35;;;2.70;;
25249;SDS011;13201;51.148;13.738;2022-11-25T03:30:33;6.28;;;2.30;;
25249;SDS011;13201;51.148;13.738;2022-11-25T03:32:59;6.07;;;2.33;;
25249;SDS011;13201;51.148;13.738;2022-11-25T03:35:25;4.22;;;2.22;;
25249;SDS011;13201;51.148;13.738;2022-11-25T03:37:51;5.03;;;2.35;;
25249;SDS011;13201;51.148;13.738;2022-11-25T03:40:16;4.72;;;2.38;;
25249;SDS011;13201;51.148;13.738;2022-11-25T03:42:42;5.35;;;2.65;;
25249;SDS011;13201;51.148;13.738;2022-11-25T03:45:09;5.55;;;2.33;;
25249;SDS011;13201;51.148;13.738;2022-11-25T03:47:39;3.67;;;2.20;;
25249;SDS011;13201;51.148;13.738;2022-11-25T03:50:06;4.10;;;2.20;;
25249;SDS011;13201;51.148;13.738;2022-11-25T03:52:32;6.45;;;2.40;;
25249;SDS011;13201;51.148;13.738;2022-11-25T03:54:58;4.53;;;2.58;;
25249;SDS011;13201;51.148;13.738;2022-11-25T03:57:23;5.80;;;2.60;;
25249;SDS011;13201;51.148;13.738;2022-11-25T03:59:49;5.28;;;2.60;;
25249;SDS011;13201;51.148;13.738;2022-11-25T04:02:15;4.85;;;2.60;;
25249;SDS011;13201;51.148;13.738;2022-11-25T04:04:40;7.22;;;2.75;;
25249;SDS011;13201;51.148;13.738;2022-11-25T04:07:06;7.75;;;2.40;;
25249;SDS011;13201;51.148;13.738;2022-11-25T04:09:32;6.00;;;2.72;;
25249;SDS011;13201;51.148;13.738;2022-11-25T04:11:58;5.32;;;2.95;;
25249;SDS011;13201;51.148;13.738;2022-11-25T04:14:42;4.22;;;2.60;;
25249;SDS011;13201;51.148;13.738;2022-11-25T04:17:07;6.25;;;2.53;;
25249;SDS011;13201;51.148;13.738;2022-11-25T04:19:33;5.18;;;2.40;;
25249;SDS011;13201;51.148;13.738;2022-11-25T04:21:58;4.35;;;2.67;;
25249;SDS011;13201;51.148;13.738;2022-11-25T04:24:25;5.33;;;2.40;;
25249;SDS011;13201;51.148;13.738;2022-11-25T04:26:51;3.45;;;2.58;;
25249;SDS011;13201;51.148;13.738;2022-11-25T04:29:17;4.45;;;2.40;;
25249;SDS011;13201;51.148;13.738;2022-11-25T04:31:43;6.18;;;2.40;;
25249;SDS011;13201;51.148;13.738;2022-11-25T04:34:08;5.25;;;2.80;;
25249;SDS011;13201;51.148;13.738;2022-11-25T04:36:34;5.45;;;2.28;;
25249;SDS011;13201;51.148;13.738;2022-11-25T04:39:00;3.70;;;2.17;;
25249;SDS011;13201;51.148;13.738;2022-11-25T04:41:26;4.18;;;2.55;;
25249;SDS011;13201;51.148;13.738;2022-11-25T04:43:51;6.82;;;2.90;;
25249;SDS011;13201;51.148;13.738;2022-11-25T04:46:18;6.35;;;2.53;;
25249;SDS011;13201;51.148;13.738;2022-11-25T04:48:47;3.80;;;2.20;;
25249;SDS011;13201;51.148;13.738;2022-11-25T04:51:13;5.90;;;2.33;;
25249;SDS011;13201;51.148;13.738;2022-11-25T04:53:39;5.50;;;2.47;;
25249;SDS011;13201;51.148;13.738;2022-11-25T04:56:05;6.13;;;2.50;;
25249;SDS011;13201;51.148;13.738;2022-11-25T04:58:30;6.15;;;3.15;;
25249;SDS011;13201;51.148;13.738;2022-11-25T05:01:14;7.63;;;2.75;;
25249;SDS011;13201;51.148;13.738;2022-11-25T05:03:40;5.20;;;2.28;;
25249;SDS011;13201;51.148;13.738;2022-11-25T05:06:06;5.50;;;2.47;;
25249;SDS011;13201;51.148;13.738;2022-11-25T05:10:59;3.50;;;2.40;;
25249;SDS011;13201;51.148;13.738;2022-11-25T05:13:24;5.97;;;3.05;;
25249;SDS011;13201;51.148;13.738;2022-11-25T05:15:51;8.77;;;3.35;;
25249;SDS011;13201;51.148;13.738;2022-11-25T05:18:16;5.45;;;2.92;;
25249;SDS011;13201;51.148;13.738;2022-11-25T05:20:42;4.38;;;2.35;;
25249;SDS011;13201;51.148;13.738;2022-11-25T05:23:08;4.60;;;2.20;;
25249;SDS011;13201;51.148;13.738;2022-11-25T05:25:34;5.65;;;2.20;;
25249;SDS011;13201;51.148;13.738;2022-11-25T05:28:00;7.70;;;2.33;;
25249;SDS011;13201;51.148;13.738;2022-11-25T05:30:25;5.40;;;2.30;;
25249;SDS011;13201;51.148;13.738;2022-11-25T05:32:51;4.25;;;2.10;;
25249;SDS011;13201;51.148;13.738;2022-11-25T05:35:17;3.95;;;2.15;;
25249;SDS011;13201;51.148;13.738;2022-11-25T05:37:43;5.25;;;2.10;;
25249;SDS011;13201;51.148;13.738;2022-11-25T05:40:09;4.65;;;2.35;;
25249;SDS011;13201;51.148;13.738;2022-11-25T05:42:34;4.18;;;2.20;;
25249;SDS011;13201;51.148;13.738;2022-11-25T05:45:00;4.68;;;2.20;;
25249;SDS011;13201;51.148;13.738;2022-11-25T05:47:26;4.78;;;2.78;;
25249;SDS011;13201;51.148;13.738;2022-11-25T05:49:52;4.63;;;2.25;;
25249;SDS011;13201;51.148;13.738;2022-11-25T05:52:17;3.88;;;2.22;;
25249;SDS011;13201;51.148;13.738;2022-11-25T05:54:43;3.85;;;1.92;;
25249;SDS011;13201;51.148;13.738;2022-11-25T05:57:09;5.75;;;2.30;;
25249;SDS011;13201;51.148;13.738;2022-11-25T05:59:34;5.40;;;2.03;;
25249;SDS011;13201;51.148;13.738;2022-11-25T06:02:00;2.92;;;1.55;;
25249;SDS011;13201;51.148;13.738;2022-11-25T06:04:25;3.78;;;1.98;;
25249;SDS011;13201;51.148;13.738;2022-11-25T06:06:51;4.15;;;2.10;;
25249;SDS011;13201;51.148;13.738;2022-11-25T06:09:17;4.47;;;2.03;;
25249;SDS011;13201;51.148;13.738;2022-11-25T06:11:42;3.80;;;1.85;;
25249;SDS011;13201;51.148;13.738;2022-11-25T06:14:08;22.33;;;9.50;;
25249;SDS011;13201;51.148;13.738;2022-11-25T06:16:34;5.57;;;2.72;;
25249;SDS011;13201;51.148;13.738;2022-11-25T06:19:03;7.07;;;2.85;;
25249;SDS011;13201;51.148;13.738;2022-11-25T06:21:30;5.13;;;2.17;;
25249;SDS011;13201;51.148;13.738;2022-11-25T06:23:57;6.47;;;2.20;;
25249;SDS011;13201;51.148;13.738;2022-11-25T06:26:22;3.60;;;1.80;;
25249;SDS011;13201;51.148;13.738;2022-11-25T06:28:51;5.07;;;2.40;;
25249;SDS011;13201;51.148;13.738;2022-11-25T06:31:19;7.13;;;2.95;;
25249;SDS011;13201;51.148;13.738;2022-11-25T06:33:49;5.35;;;2.60;;
25249;SDS011;13201;51.148;13.738;2022-11-25T06:36:16;4.85;;;2.45;;
25249;SDS011;13201;51.148;13.738;2022-11-25T06:41:09;6.07;;;2.60;;
25249;SDS011;13201;51.148;13.738;2022-11-25T06:43:35;5.15;;;2.78;;
25249;SDS011;13201;51.148;13.738;2022-11-25T06:46:02;4.03;;;2.53;;
25249;SDS011;13201;51.148;13.738;2022-11-25T06:48:32;5.43;;;3.28;;
25249;SDS011;13201;51.148;13.738;2022-11-25T06:50:58;6.90;;;2.67;;
25249;SDS011;13201;51.148;13.738;2022-11-25T06:53:26;4.82;;;2.80;;
25249;SDS011;13201;51.148;13.738;2022-11-25T06:56:05;7.32;;;3.08;;
25249;SDS011;13201;51.148;13.738;2022-11-25T06:58:32;4.55;;;2.55;;
25249;SDS011;13201;51.148;13.738;2022-11-25T07:01:02;5.65;;;2.92;;
25249;SDS011;13201;51.148;13.738;2022-11-25T07:03:29;8.13;;;3.20;;
25249;SDS011;13201;51.148;13.738;2022-11-25T07:05:58;7.82;;;3.50;;
25249;SDS011;13201;51.148;13.738;2022-11-25T07:08:25;6.05;;;2.90;;
25249;SDS011;13201;51.148;13.738;2022-11-25T07:10:51;6.68;;;2.97;;
25249;SDS011;13201;51.148;13.738;2022-11-25T07:13:18;8.97;;;2.60;;
25249;SDS011;13201;51.148;13.738;2022-11-25T07:15:44;9.82;;;3.60;;
25249;SDS011;13201;51.148;13.738;2022-11-25T07:18:10;6.43;;;3.25;;
25249;SDS011;13201;51.148;13.738;2022-11-25T07:20:36;7.20;;;3.10;;
25249;SDS011;13201;51.148;13.738;2022-11-25T07:23:02;5.72;;;3.42;;
25249;SDS011;13201;51.148;13.738;2022-11-25T07:25:28;7.03;;;3.00;;
25249;SDS011;13201;51.148;13.738;2022-11-25T07:27:54;5.18;;;2.80;;
25249;SDS011;13201;51.148;13.738;2022-11-25T07:30:19;8.43;;;3.05;;
25249;SDS011;13201;51.148;13.738;2022-11-25T07:32:46;7.20;;;2.97;;
25249;SDS011;13201;51.148;13.738;2022-11-25T07:35:11;5.93;;;3.47;;
25249;SDS011;13201;51.148;13.738;2022-11-25T07:37:37;5.85;;;3.30;;
25249;SDS011;13201;51.148;13.738;2022-11-25T07:40:03;5.05;;;2.72;;
25249;SDS011;13201;51.148;13.738;2022-11-25T07:42:29;5.90;;;3.10;;
25249;SDS011;13201;51.148;13.738;2022-11-25T07:44:55;6.82;;;3.17;;
25249;SDS011;13201;51.148;13.738;2022-11-25T07:47:20;7.03;;;3.10;;
25249;SDS011;13201;51.148;13.738;2022-11-25T07:49:46;6.13;;;2.97;;
25249;SDS011;13201;51.148;13.738;2022-11-25T07:52:12;13.45;;;5.32;;
25249;SDS011;13201;51.148;13.738;2022-11-25T07:54:37;6.35;;;3.50;;
25249;SDS011;13201;51.148;13.738;2022-11-25T07:57:03;5.85;;;3.03;;
25249;SDS011;13201;51.148;13.738;2022-11-25T07:59:28;5.18;;;2.92;;
25249;SDS011;13201;51.148;13.738;2022-11-25T08:01:54;5.35;;;2.88;;
25249;SDS011;13201;51.148;13.738;2022-11-25T08:04:20;6.03;;;3.10;;
25249;SDS011;13201;51.148;13.738;2022-11-25T08:06:48;9.43;;;3.20;;
25249;SDS011;13201;51.148;13.738;2022-11-25T08:09:16;7.47;;;3.50;;
25249;SDS011;13201;51.148;13.738;2022-11-25T08:11:43;7.78;;;3.75;;
25249;SDS011;13201;51.148;13.738;2022-11-25T08:14:10;8.85;;;4.18;;
25249;SDS011;13201;51.148;13.738;2022-11-25T08:16:36;44.75;;;17.67;;
25249;SDS011;13201;51.148;13.738;2022-11-25T08:19:03;30.23;;;12.23;;
25249;SDS011;13201;51.148;13.738;2022-11-25T08:21:30;33.17;;;12.70;;
25249;SDS011;13201;51.148;13.738;2022-11-25T08:23:56;17.13;;;6.28;;
25249;SDS011;13201;51.148;13.738;2022-11-25T08:26:26;8.00;;;3.85;;
25249;SDS011;13201;51.148;13.738;2022-11-25T08:28:57;9.45;;;4.63;;
25249;SDS011;13201;51.148;13.738;2022-11-25T08:31:27;9.38;;;4.70;;
25249;SDS011;13201;51.148;13.738;2022-11-25T08:33:55;9.55;;;4.00;;
25249;SDS011;13201;51.148;13.738;2022-11-25T08:36:21;10.90;;;4.43;;
25249;SDS011;13201;51.148;13.738;2022-11-25T08:38:48;5.85;;;3.13;;
25249;SDS011;13201;51.148;13.738;2022-11-25T08:41:17;6.80;;;3.53;;
25249;SDS011;13201;51.148;13.738;2022-11-25T08:43:45;9.07;;;4.65;;
25249;SDS011;13201;51.148;13.738;2022-11-25T08:46:12;10.63;;;4.37;;
25249;SDS011;13201;51.148;13.738;2022-11-25T08:48:40;6.05;;;3.20;;
25249;SDS011;13201;51.148;13.738;2022-11-25T08:51:07;8.37;;;3.10;;
25249;SDS011;13201;51.148;13.738;2022-11-25T08:53:34;10.23;;;4.53;;
25249;SDS011;13201;51.148;13.738;2022-11-25T08:56:00;7.67;;;4.00;;
25249;SDS011;13201;51.148;13.738;2022-11-25T08:58:26;8.15;;;5.15;;
25249;SDS011;13201;51.148;13.738;2022-11-25T09:00:51;9.80;;;4.45;;
25249;SDS011;13201;51.148;13.738;2022-11-25T09:03:17;13.10;;;5.97;;
25249;SDS011;13201;51.148;13.738;2022-11-25T09:05:43;11.38;;;5.90;;
25249;SDS011;13201;51.148;13.738;2022-11-25T09:08:09;6.23;;;3.37;;
25249;SDS011;13201;51.148;13.738;2022-11-25T09:10:36;7.70;;;3.03;;
25249;SDS011;13201;51.148;13.738;2022-11-25T09:15:28;4.43;;;2.67;;
25249;SDS011;13201;51.148;13.738;2022-11-25T09:18:01;5.43;;;2.50;;
25249;SDS011;13201;51.148;13.738;2022-11-25T09:20:30;4.95;;;2.33;;
25249;SDS011;13201;51.148;13.738;2022-11-25T09:22:57;5.15;;;2.45;;
25249;SDS011;13201;51.148;13.738;2022-11-25T09:27:50;4.87;;;2.17;;
25249;SDS011;13201;51.148;13.738;2022-11-25T09:30:15;4.70;;;2.38;;
25249;SDS011;13201;51.148;13.738;2022-11-25T09:32:41;7.93;;;2.50;;
25249;SDS011;13201;51.148;13.738;2022-11-25T09:35:07;6.60;;;2.80;;
25249;SDS011;13201;51.148;13.738;2022-11-25T09:37:33;7.47;;;3.00;;
25249;SDS011;13201;51.148;13.738;2022-11-25T09:39:58;7.80;;;2.95;;
25249;SDS011;13201;51.148;13.738;2022-11-25T09:42:28;5.53;;;2.92;;
25249;SDS011;13201;51.148;13.738;2022-11-25T09:45:24;7.97;;;3.13;;
25249;SDS011;13201;51.148;13.738;2022-11-25T10:01:49;7.30;;;2.92;;
25249;SDS011;13201;51.148;13.738;2022-11-25T10:04:19;8.63;;;2.45;;
25249;SDS011;13201;51.148;13.738;2022-11-25T10:07:07;5.38;;;2.03;;
25249;SDS011;13201;51.148;13.738;2022-11-25T10:09:42;5.05;;;2.58;;
25249;SDS011;13201;51.148;13.738;2022-11-25T10:12:18;6.63;;;2.60;;
25249;SDS011;13201;51.148;13.738;2022-11-25T10:14:58;4.60;;;2.30;;
25249;SDS011;13201;51.148;13.738;2022-11-25T10:17:37;4.50;;;2.28;;
25249;SDS011;13201;51.148;13.738;2022-11-25T10:20:25;6.47;;;2.60;;
25249;SDS011;13201;51.148;13.738;2022-11-25T10:22:55;5.53;;;2.40;;
25249;SDS011;13201;51.148;13.738;2022-11-25T10:25:44;6.18;;;2.55;;
25249;SDS011;13201;51.148;13.738;2022-11-25T10:30:49;4.93;;;2.40;;
25249;SDS011;13201;51.148;13.738;2022-11-25T10:33:49;7.15;;;2.58;;
25249;SDS011;13201;51.148;13.738;2022-11-25T10:36:33;8.32;;;2.80;;
25249;SDS011;13201;51.148;13.738;2022-11-25T10:39:04;7.22;;;2.40;;
25249;SDS011;13201;51.148;13.738;2022-11-25T10:41:42;6.10;;;2.60;;
25249;SDS011;13201;51.148;13.738;2022-11-25T10:55:23;5.55;;;2.30;;
25249;SDS011;13201;51.148;13.738;2022-11-25T10:57:51;6.90;;;2.35;;
25249;SDS011;13201;51.148;13.738;2022-11-25T11:02:51;8.40;;;2.88;;
25249;SDS011;13201;51.148;13.738;2022-11-25T11:05:27;6.70;;;2.45;;
25249;SDS011;13201;51.148;13.738;2022-11-25T11:08:07;6.25;;;2.30;;
25249;SDS011;13201;51.148;13.738;2022-11-25T11:10:36;6.38;;;2.35;;
25249;SDS011;13201;51.148;13.738;2022-11-25T11:13:35;9.85;;;3.17;;
25249;SDS011;13201;51.148;13.738;2022-11-25T11:15:57;7.43;;;2.47;;
25249;SDS011;13201;51.148;13.738;2022-11-25T11:20:55;8.18;;;2.63;;
25249;SDS011;13201;51.148;13.738;2022-11-25T11:23:23;5.82;;;2.45;;
25249;SDS011;13201;51.148;13.738;2022-11-25T11:31:05;8.20;;;2.58;;
25249;SDS011;13201;51.148;13.738;2022-11-25T11:43:20;5.90;;;2.65;;
25249;SDS011;13201;51.148;13.738;2022-11-25T11:53:24;5.03;;;2.60;;
25249;SDS011;13201;51.148;13.738;2022-11-25T12:04:11;5.25;;;2.13;;
25249;SDS011;13201;51.148;13.738;2022-11-25T12:06:46;4.70;;;2.03;;
25249;SDS011;13201;51.148;13.738;2022-11-25T12:09:30;4.55;;;2.10;;
25249;SDS011;13201;51.148;13.738;2022-11-25T12:12:02;7.45;;;2.22;;
25249;SDS011;13201;51.148;13.738;2022-11-25T12:14:44;4.68;;;2.00;;
25249;SDS011;13201;51.148;13.738;2022-11-25T12:17:15;7.32;;;2.08;;
25249;SDS011;13201;51.148;13.738;2022-11-25T12:19:54;8.07;;;2.30;;
25249;SDS011;13201;51.148;13.738;2022-11-25T12:22:42;5.45;;;2.38;;
25249;SDS011;13201;51.148;13.738;2022-11-25T12:30:20;7.40;;;1.95;;
25249;SDS011;13201;51.148;13.738;2022-11-25T12:35:39;7.60;;;2.22;;
25249;SDS011;13201;51.148;13.738;2022-11-25T12:38:13;5.00;;;1.58;;
25249;SDS011;13201;51.148;13.738;2022-11-25T12:43:48;5.47;;;1.83;;
25249;SDS011;13201;51.148;13.738;2022-11-25T12:46:42;3.60;;;1.63;;
25249;SDS011;13201;51.148;13.738;2022-11-25T12:49:16;4.80;;;1.63;;
25249;SDS011;13201;51.148;13.738;2022-11-25T13:12:15;4.45;;;2.10;;
25249;SDS011;13201;51.148;13.738;2022-11-25T13:17:42;6.50;;;2.35;;
25249;SDS011;13201;51.148;13.738;2022-11-25T13:25:32;4.53;;;2.45;;
25249;SDS011;13201;51.148;13.738;2022-11-25T13:28:00;5.75;;;2.88;;
25249;SDS011;13201;51.148;13.738;2022-11-25T13:32:56;7.35;;;3.10;;
25249;SDS011;13201;51.148;13.738;2022-11-25T13:41:35;6.60;;;3.00;;
25249;SDS011;13201;51.148;13.738;2022-11-25T13:44:11;5.53;;;2.58;;
25249;SDS011;13201;51.148;13.738;2022-11-25T13:46:46;10.57;;;3.53;;
25249;SDS011;13201;51.148;13.738;2022-11-25T13:54:51;7.22;;;2.88;;
25249;SDS011;13201;51.148;13.738;2022-11-25T13:57:32;6.43;;;3.03;;
25249;SDS011;13201;51.148;13.738;2022-11-25T14:00:00;5.90;;;2.88;;
25249;SDS011;13201;51.148;13.738;2022-11-25T14:02:34;7.95;;;3.40;;
25249;SDS011;13201;51.148;13.738;2022-11-25T14:21:51;9.13;;;3.58;;
25249;SDS011;13201;51.148;13.738;2022-11-25T14:24:49;6.95;;;3.78;;
25249;SDS011;13201;51.148;13.738;2022-11-25T14:27:20;6.43;;;3.42;;
25249;SDS011;13201;51.148;13.738;2022-11-25T14:29:51;7.35;;;3.25;;
25249;SDS011;13201;51.148;13.738;2022-11-25T14:37:26;7.68;;;3.65;;
25249;SDS011;13201;51.148;13.738;2022-11-25T14:40:00;9.10;;;3.90;;
25249;SDS011;13201;51.148;13.738;2022-11-25T14:42:58;8.27;;;3.43;;
25249;SDS011;13201;51.148;13.738;2022-11-25T14:45:30;13.20;;;4.40;;
25249;SDS011;13201;51.148;13.738;2022-11-25T14:48:15;7.97;;;3.88;;
25249;SDS011;13201;51.148;13.738;2022-11-25T14:50:53;7.45;;;3.95;;
25249;SDS011;13201;51.148;13.738;2022-11-25T14:53:46;9.48;;;3.70;;
25249;SDS011;13201;51.148;13.738;2022-11-25T14:56:14;8.98;;;4.20;;
25249;SDS011;13201;51.148;13.738;2022-11-25T14:58:52;9.10;;;4.63;;
25249;SDS011;13201;51.148;13.738;2022-11-25T15:01:32;9.07;;;4.43;;
25249;SDS011;13201;51.148;13.738;2022-11-25T15:04:01;10.23;;;4.80;;
25249;SDS011;13201;51.148;13.738;2022-11-25T15:06:32;9.35;;;4.50;;
25249;SDS011;13201;51.148;13.738;2022-11-25T15:09:02;9.52;;;4.40;;
25249;SDS011;13201;51.148;13.738;2022-11-25T15:11:35;11.70;;;4.18;;
25249;SDS011;13201;51.148;13.738;2022-11-25T15:14:02;11.98;;;4.78;;
25249;SDS011;13201;51.148;13.738;2022-11-25T15:16:33;9.35;;;4.53;;
25249;SDS011;13201;51.148;13.738;2022-11-25T15:19:02;11.00;;;4.30;;
25249;SDS011;13201;51.148;13.738;2022-11-25T15:21:33;8.57;;;4.30;;
25249;SDS011;13201;51.148;13.738;2022-11-25T15:24:01;11.13;;;5.05;;
25249;SDS011;13201;51.148;13.738;2022-11-25T15:26:29;9.40;;;4.53;;
25249;SDS011;13201;51.148;13.738;2022-11-25T15:28:58;13.48;;;5.03;;
25249;SDS011;13201;51.148;13.738;2022-11-25T15:31:34;9.85;;;4.85;;
25249;SDS011;13201;51.148;13.738;2022-11-25T15:34:09;9.38;;;4.78;;
25249;SDS011;13201;51.148;13.738;2022-11-25T15:36:37;10.40;;;4.32;;
25249;SDS011;13201;51.148;13.738;2022-11-25T15:41:45;8.88;;;4.60;;
25249;SDS011;13201;51.148;13.738;2022-11-25T15:44:23;13.00;;;4.65;;
25249;SDS011;13201;51.148;13.738;2022-11-25T15:46:58;11.18;;;5.50;;
25249;SDS011;13201;51.148;13.738;2022-11-25T15:49:26;14.88;;;5.55;;
25249;SDS011;13201;51.148;13.738;2022-11-25T15:51:54;10.00;;;5.18;;
25249;SDS011;13201;51.148;13.738;2022-11-25T15:54:30;11.73;;;5.60;;
25249;SDS011;13201;51.148;13.738;2022-11-25T15:57:10;12.52;;;5.50;;
25249;SDS011;13201;51.148;13.738;2022-11-25T15:59:45;11.70;;;5.45;;
25249;SDS011;13201;51.148;13.738;2022-11-25T16:10:17;14.52;;;5.38;;
25249;SDS011;13201;51.148;13.738;2022-11-25T16:18:17;13.45;;;6.10;;
25249;SDS011;13201;51.148;13.738;2022-11-25T16:20:55;22.20;;;10.65;;
25249;SDS011;13201;51.148;13.738;2022-11-25T16:23:23;13.05;;;6.80;;
25249;SDS011;13201;51.148;13.738;2022-11-25T16:25:50;17.35;;;6.95;;
25249;SDS011;13201;51.148;13.738;2022-11-25T16:28:20;12.30;;;6.30;;
25249;SDS011;13201;51.148;13.738;2022-11-25T16:30:47;13.90;;;6.32;;
25249;SDS011;13201;51.148;13.738;2022-11-25T16:33:15;13.20;;;6.30;;
25249;SDS011;13201;51.148;13.738;2022-11-25T16:35:41;13.70;;;6.65;;
25249;SDS011;13201;51.148;13.738;2022-11-25T16:38:07;15.82;;;6.93;;
25249;SDS011;13201;51.148;13.738;2022-11-25T16:40:35;16.60;;;7.30;;
25249;SDS011;13201;51.148;13.738;2022-11-25T16:43:02;16.13;;;7.07;;
25249;SDS011;13201;51.148;13.738;2022-11-25T16:45:28;16.60;;;7.38;;
25249;SDS011;13201;51.148;13.738;2022-11-25T16:47:54;21.33;;;9.10;;
25249;SDS011;13201;51.148;13.738;2022-11-25T16:50:20;15.70;;;7.53;;
25249;SDS011;13201;51.148;13.738;2022-11-25T16:52:46;13.88;;;6.70;;
25249;SDS011;13201;51.148;13.738;2022-11-25T16:57:39;19.00;;;7.10;;
25249;SDS011;13201;51.148;13.738;2022-11-25T17:00:10;18.77;;;7.05;;
25249;SDS011;13201;51.148;13.738;2022-11-25T17:02:38;13.77;;;6.95;;
25249;SDS011;13201;51.148;13.738;2022-11-25T17:05:23;12.80;;;6.45;;
25249;SDS011;13201;51.148;13.738;2022-11-25T17:07:50;17.70;;;6.80;;
25249;SDS011;13201;51.148;13.738;2022-11-25T17:10:16;16.35;;;7.43;;
25249;SDS011;13201;51.148;13.738;2022-11-25T17:12:43;20.25;;;6.75;;
25249;SDS011;13201;51.148;13.738;2022-11-25T17:15:13;14.15;;;7.05;;
25249;SDS011;13201;51.148;13.738;2022-11-25T17:17:59;17.02;;;7.53;;
25249;SDS011;13201;51.148;13.738;2022-11-25T17:20:26;15.55;;;7.20;;
25249;SDS011;13201;51.148;13.738;2022-11-25T17:22:52;15.90;;;7.15;;
25249;SDS011;13201;51.148;13.738;2022-11-25T17:25:18;15.33;;;7.07;;
25249;SDS011;13201;51.148;13.738;2022-11-25T17:27:45;26.95;;;13.15;;
25249;SDS011;13201;51.148;13.738;2022-11-25T17:32:47;17.83;;;8.30;;
25249;SDS011;13201;51.148;13.738;2022-11-25T17:35:18;16.05;;;8.20;;
25249;SDS011;13201;51.148;13.738;2022-11-25T17:37:45;17.95;;;8.88;;
25249;SDS011;13201;51.148;13.738;2022-11-25T17:40:11;18.65;;;7.90;;
25249;SDS011;13201;51.148;13.738;2022-11-25T17:42:38;14.27;;;7.67;;
25249;SDS011;13201;51.148;13.738;2022-11-25T17:45:11;13.52;;;6.97;;
25249;SDS011;13201;51.148;13.738;2022-11-25T17:47:39;15.40;;;7.90;;
25249;SDS011;13201;51.148;13.738;2022-11-25T17:50:15;15.82;;;7.90;;
25249;SDS011;13201;51.148;13.738;2022-11-25T17:52:45;17.90;;;7.55;;
25249;SDS011;13201;51.148;13.738;2022-11-25T17:55:10;16.48;;;7.07;;
25249;SDS011;13201;51.148;13.738;2022-11-25T17:57:37;15.60;;;7.23;;
25249;SDS011;13201;51.148;13.738;2022-11-25T18:00:04;17.80;;;7.22;;
25249;SDS011;13201;51.148;13.738;2022-11-25T18:02:31;16.92;;;7.45;;
25249;SDS011;13201;51.148;13.738;2022-11-25T18:04:57;16.67;;;8.10;;